createdAt,value
2022-08-19T00:03:42.709Z,20.30
2022-08-19T00:08:44.657Z,20.20
2022-08-19T00:13:49.377Z,20.20
2022-08-19T00:18:51.454Z,20.20
2022-08-19T00:23:54.188Z,20.20
2022-08-19T00:28:56.528Z,20.30
2022-08-19T00:33:58.328Z,20.30
2022-08-19T00:39:00.299Z,20.30
2022-08-19T00:44:06.835Z,20.40
2022-08-19T00:49:16.196Z,20.40
2022-08-19T00:54:28.244Z,20.40
2022-08-19T01:00:00.780Z,20.30
2022-08-19T01:05:09.000Z,20.20
2022-08-19T01:10:16.204Z,20.10
2022-08-19T01:15:22.086Z,20.00
2022-08-19T01:20:25.448Z,20.00
2022-08-19T01:25:42.569Z,19.90
2022-08-19T01:30:50.903Z,20.00
2022-08-19T01:35:53.567Z,19.90
2022-08-19T01:40:56.095Z,19.90
2022-08-19T01:45:57.839Z,19.90
2022-08-19T01:50:59.543Z,19.90
2022-08-19T01:56:02.130Z,19.80
2022-08-19T02:01:05.167Z,19.80
2022-08-19T02:06:07.513Z,19.80
2022-08-19T02:11:09.275Z,19.80
2022-08-19T02:16:10.976Z,19.80
2022-08-19T02:21:13.858Z,19.80
2022-08-19T02:26:18.107Z,19.80
2022-08-19T02:31:22.673Z,19.80
2022-08-19T02:36:28.730Z,19.80
2022-08-19T02:41:33.953Z,19.90
2022-08-19T02:46:36.349Z,19.90
2022-08-19T02:51:45.100Z,19.90
2022-08-19T02:56:47.498Z,19.90
2022-08-19T03:01:49.233Z,19.90
2022-08-19T03:06:51.405Z,19.90
2022-08-19T03:11:53.193Z,19.90
2022-08-19T03:16:54.868Z,20.00
2022-08-19T03:21:56.572Z,20.00
2022-08-19T03:26:59.586Z,20.00
2022-08-19T03:32:04.766Z,20.00
2022-08-19T03:37:13.308Z,20.10
2022-08-19T03:42:38.237Z,20.10
2022-08-19T03:47:38.740Z,20.10
2022-08-19T03:52:40.912Z,20.20
2022-08-19T03:57:49.413Z,20.20
2022-08-19T04:02:58.151Z,20.10
2022-08-19T04:08:02.308Z,20.10
2022-08-19T04:13:06.296Z,20.10
2022-08-19T04:18:11.783Z,20.10
2022-08-19T04:23:14.941Z,20.10
2022-08-19T04:28:16.893Z,20.20
2022-08-19T04:33:23.998Z,20.20
2022-08-19T04:38:28.925Z,20.30
2022-08-19T04:43:31.550Z,20.20
2022-08-19T04:48:33.427Z,20.20
2022-08-19T04:53:38.554Z,20.20
2022-08-19T04:58:45.145Z,20.30
2022-08-19T05:03:46.919Z,20.50
2022-08-19T05:08:49.422Z,20.60
2022-08-19T05:13:51.598Z,20.50
2022-08-19T05:19:12.736Z,20.60
2022-08-19T05:24:15.619Z,20.40
2022-08-19T05:29:20.051Z,20.30
2022-08-19T05:34:26.935Z,20.40
2022-08-19T05:39:30.776Z,20.50
2022-08-19T05:44:34.580Z,20.40
2022-08-19T05:49:37.425Z,20.50
2022-08-19T05:54:43.522Z,20.60
2022-08-19T05:59:47.209Z,20.60
2022-08-19T06:04:49.013Z,20.70
2022-08-19T06:09:58.942Z,20.60
2022-08-19T06:15:12.293Z,20.50
2022-08-19T06:20:15.862Z,20.70
2022-08-19T06:25:18.218Z,20.70
2022-08-19T06:30:19.957Z,20.70
2022-08-19T06:35:21.771Z,20.60
2022-08-19T06:40:23.817Z,20.60
2022-08-19T06:45:35.674Z,20.50
2022-08-19T06:50:41.226Z,20.50
2022-08-19T06:55:42.917Z,20.50
2022-08-19T07:00:45.020Z,20.50
2022-08-19T07:05:47.277Z,20.40
2022-08-19T07:10:50.043Z,20.50
2022-08-19T07:15:51.786Z,20.40
2022-08-19T07:21:05.109Z,20.40
2022-08-19T07:26:15.494Z,20.50
2022-08-19T07:31:23.083Z,20.50
2022-08-19T07:36:33.073Z,20.50
2022-08-19T07:41:37.947Z,20.40
2022-08-19T07:46:42.515Z,20.50
2022-08-19T07:51:45.759Z,20.40
2022-08-19T07:56:47.761Z,20.50
2022-08-19T08:01:51.006Z,20.50
2022-08-19T08:07:12.808Z,20.60
2022-08-19T08:12:35.018Z,20.40
2022-08-19T08:17:49.679Z,20.50
2022-08-19T08:23:11.820Z,20.50
2022-08-19T08:28:17.758Z,20.60
2022-08-19T08:33:33.056Z,20.90
2022-08-19T08:38:41.038Z,20.80
2022-08-19T08:43:47.333Z,20.80
2022-08-19T08:48:58.691Z,20.70
2022-08-19T08:54:05.461Z,20.70
2022-08-19T08:59:23.060Z,20.80
2022-08-19T09:04:25.084Z,20.70
2022-08-19T09:09:36.536Z,20.80
2022-08-19T09:14:51.795Z,20.90
2022-08-19T09:20:05.157Z,20.90
2022-08-19T09:25:09.183Z,21.60
2022-08-19T09:30:16.364Z,21.70
2022-08-19T09:35:18.164Z,22.10
2022-08-19T09:40:21.138Z,21.60
2022-08-19T09:45:26.520Z,21.60
2022-08-19T09:50:28.324Z,21.30
2022-08-19T09:55:31.795Z,21.10
2022-08-19T10:00:34.400Z,21.30
2022-08-19T10:05:54.650Z,21.20
2022-08-19T10:10:58.854Z,21.50
2022-08-19T10:16:07.446Z,21.50
2022-08-19T10:21:15.706Z,21.60
2022-08-19T10:26:23.313Z,21.60
2022-08-19T10:32:02.666Z,22.00
2022-08-19T10:36:56.357Z,22.10
2022-08-19T10:41:58.921Z,22.40
2022-08-19T10:47:00.971Z,22.30
2022-08-19T10:52:23.760Z,22.40
2022-08-19T10:57:52.249Z,22.30
2022-08-19T11:02:56.705Z,22.20
2022-08-19T11:07:58.394Z,21.90
2022-08-19T11:13:03.366Z,22.10
2022-08-19T11:18:05.118Z,22.10
2022-08-19T11:23:15.056Z,22.00
2022-08-19T11:28:16.950Z,22.30
2022-08-19T11:33:18.893Z,22.10
2022-08-19T11:38:20.729Z,22.70
2022-08-19T11:43:22.612Z,22.70
2022-08-19T11:48:26.245Z,23.30
2022-08-19T11:53:27.968Z,23.10
2022-08-19T11:58:32.945Z,23.40
2022-08-19T12:03:35.175Z,23.20
2022-08-19T12:08:37.292Z,23.50
2022-08-19T12:13:39.781Z,24.00
2022-08-19T12:18:44.830Z,23.40
2022-08-19T12:23:47.075Z,23.00
2022-08-19T12:28:49.192Z,23.90
2022-08-19T12:33:51.245Z,23.10
2022-08-19T12:38:53.620Z,23.10
2022-08-19T12:43:55.330Z,23.70
2022-08-19T12:48:57.850Z,23.40
2022-08-19T12:54:00.485Z,23.90
2022-08-19T12:59:04.296Z,23.90
2022-08-19T13:04:06.132Z,24.70
2022-08-19T13:09:07.878Z,24.90
2022-08-19T13:14:09.958Z,24.60
2022-08-19T13:19:12.998Z,25.10
2022-08-19T13:24:14.749Z,25.10
2022-08-19T13:29:35.244Z,24.50
2022-08-19T13:34:37.971Z,24.10
2022-08-19T13:39:39.880Z,24.40
2022-08-19T13:44:41.668Z,23.90
2022-08-19T13:49:43.638Z,23.90
2022-08-19T13:54:45.363Z,23.90
2022-08-19T13:59:47.206Z,23.90
2022-08-19T14:04:48.988Z,23.70
2022-08-19T14:09:51.515Z,23.60
2022-08-19T14:14:53.188Z,23.60
2022-08-19T14:20:04.501Z,23.60
2022-08-19T14:25:16.146Z,23.60
2022-08-19T14:30:23.887Z,23.50
2022-08-19T14:35:27.727Z,23.60
2022-08-19T14:40:30.544Z,23.60
2022-08-19T14:45:36.694Z,23.50
2022-08-19T14:50:38.530Z,23.80
2022-08-19T14:55:45.140Z,24.10
2022-08-19T15:00:46.822Z,24.10
2022-08-19T15:05:50.719Z,23.90
2022-08-19T15:10:53.095Z,24.00
2022-08-19T15:15:55.332Z,23.90
2022-08-19T15:20:57.782Z,23.80
2022-08-19T15:26:20.896Z,23.60
2022-08-19T15:31:28.400Z,23.50
2022-08-19T15:36:30.796Z,23.40
2022-08-19T15:41:32.813Z,23.30
2022-08-19T15:46:37.894Z,23.30
2022-08-19T15:51:42.940Z,23.20
2022-08-19T15:57:03.471Z,23.00
2022-08-19T16:02:23.958Z,23.10
2022-08-19T16:07:34.158Z,23.40
2022-08-19T16:12:35.911Z,23.20
2022-08-19T16:17:38.080Z,23.30
2022-08-19T16:22:40.679Z,23.00
2022-08-19T16:27:45.640Z,23.10
2022-08-19T16:33:04.281Z,22.70
2022-08-19T16:38:07.091Z,22.40
2022-08-19T16:43:10.314Z,22.40
2022-08-19T16:48:12.038Z,22.30
2022-08-19T16:53:15.582Z,22.50
2022-08-19T16:58:20.618Z,22.60
2022-08-19T17:03:36.585Z,22.50
2022-08-19T17:08:38.799Z,22.50
2022-08-19T17:13:40.562Z,22.50
2022-08-19T17:18:45.309Z,22.40
2022-08-19T17:23:47.016Z,22.20
2022-08-19T17:28:51.726Z,22.20
2022-08-19T17:33:55.005Z,22.30
2022-08-19T17:39:00.388Z,22.40
2022-08-19T17:44:03.589Z,22.10
2022-08-19T17:49:05.345Z,22.00
2022-08-19T17:54:08.990Z,22.10
2022-08-19T17:59:14.250Z,22.20
2022-08-19T18:04:17.356Z,22.20
2022-08-19T18:09:19.096Z,22.10
2022-08-19T18:14:32.927Z,22.10
2022-08-19T18:19:41.415Z,21.90
2022-08-19T18:24:45.954Z,21.80
2022-08-19T18:29:47.967Z,21.80
2022-08-19T18:34:49.795Z,21.80
2022-08-19T18:40:10.301Z,21.70
2022-08-19T18:45:31.056Z,21.60
2022-08-19T18:50:32.903Z,21.60
2022-08-19T18:55:34.633Z,21.60
2022-08-19T19:00:36.885Z,21.70
2022-08-19T19:05:40.212Z,21.70
2022-08-19T19:10:42.276Z,21.70
2022-08-19T19:15:44.046Z,21.70
2022-08-19T19:20:45.802Z,21.70
2022-08-19T19:25:50.577Z,21.60
2022-08-19T19:30:58.419Z,21.60
2022-08-19T19:36:00.126Z,21.50
2022-08-19T19:41:02.381Z,21.60
2022-08-19T19:46:04.303Z,21.50
2022-08-19T19:51:09.452Z,21.50
2022-08-19T19:56:12.976Z,21.50
2022-08-19T20:01:21.092Z,21.40
2022-08-19T20:06:29.020Z,21.40
2022-08-19T20:11:36.036Z,21.40
2022-08-19T20:16:40.785Z,21.40
2022-08-19T20:21:50.723Z,21.40
2022-08-19T20:26:53.787Z,21.50
2022-08-19T20:31:59.091Z,21.50
2022-08-19T20:37:01.197Z,21.50
2022-08-19T20:42:03.055Z,21.40
2022-08-19T20:47:04.965Z,21.40
2022-08-19T20:52:06.982Z,21.40
2022-08-19T20:57:08.826Z,21.40
2022-08-19T21:02:11.189Z,21.30
2022-08-19T21:07:12.962Z,21.30
2022-08-19T21:12:15.153Z,21.30
2022-08-19T21:17:16.930Z,21.10
2022-08-19T21:22:18.868Z,21.00
2022-08-19T21:27:24.117Z,21.00
2022-08-19T21:32:26.002Z,21.00
2022-08-19T21:37:28.289Z,21.10
2022-08-19T21:42:30.152Z,21.10
2022-08-19T21:47:31.936Z,21.10
2022-08-19T21:52:34.325Z,21.10
2022-08-19T21:57:36.665Z,21.10
2022-08-19T22:02:39.098Z,21.10
2022-08-19T22:07:42.638Z,21.00
2022-08-19T22:12:47.273Z,21.00
2022-08-19T22:17:54.414Z,21.00
2022-08-19T22:23:02.072Z,21.00
2022-08-19T22:28:07.477Z,21.00
2022-08-19T22:33:17.630Z,20.90
2022-08-19T22:38:19.661Z,20.90
2022-08-19T22:43:24.797Z,20.90
2022-08-19T22:48:29.811Z,20.90
2022-08-19T22:53:33.702Z,20.80
2022-08-19T22:58:35.836Z,20.80
2022-08-19T23:03:37.561Z,20.80
2022-08-19T23:08:39.697Z,20.70
2022-08-19T23:13:42.184Z,20.80
2022-08-19T23:18:45.348Z,20.70
2022-08-19T23:23:47.402Z,20.70
2022-08-19T23:29:07.961Z,20.70
2022-08-19T23:34:09.667Z,20.70
2022-08-19T23:39:11.354Z,20.60
2022-08-19T23:44:14.621Z,20.50
2022-08-19T23:49:16.751Z,20.40
2022-08-19T23:54:18.499Z,20.40
2022-08-19T23:59:20.340Z,20.30
